Time;durP1;ratioP1;P1;durP2;ratioP2;P2;SDS_P1;SDS_P2;PMS_P1;PMS_P2;Temp;Humidity;BMP_temperature;BMP_pressure;BME280_temperature;BME280_humidity;BME280_pressure;Samples;Min_cycle;Max_cycle;Signal;HPM_P1;HPM_P2
2022/07/04 00:00:18;;;;;;;2.10;1.20;;;12.20;99.90;;;;;;4992491;28;20038;-73
2022/07/04 00:02:45;;;;;;;5.43;1.77;;;12.00;99.90;;;;;;4992869;28;20093;-73
2022/07/04 00:05:12;;;;;;;7.22;1.88;;;11.50;99.90;;;;;;4992426;28;20050;-73
2022/07/04 00:07:39;;;;;;;5.55;1.80;;;11.50;99.90;;;;;;4992348;28;20104;-74
2022/07/04 00:10:06;;;;;;;7.53;1.70;;;11.50;99.90;;;;;;4992652;28;20125;-73
2022/07/04 00:12:33;;;;;;;3.35;1.75;;;11.50;99.90;;;;;;4993004;28;20066;-73
2022/07/04 00:14:59;;;;;;;4.30;2.40;;;11.50;99.90;;;;;;5004044;28;20206;-72
2022/07/04 00:17:25;;;;;;;5.15;2.30;;;11.40;99.90;;;;;;5011988;28;20042;-71
2022/07/04 00:19:51;;;;;;;3.03;1.75;;;11.90;99.90;;;;;;5009696;28;20900;-73
2022/07/04 00:22:17;;;;;;;4.30;2.20;;;11.40;99.90;;;;;;5012172;28;20549;-73
2022/07/04 00:24:42;;;;;;;3.47;1.40;;;11.30;99.90;;;;;;5011646;28;20096;-72
2022/07/04 00:27:08;;;;;;;6.53;1.95;;;11.20;99.90;;;;;;5012467;28;20040;-73
2022/07/04 00:29:34;;;;;;;3.95;2.08;;;11.30;99.90;;;;;;5012007;28;20107;-72
2022/07/04 00:32:00;;;;;;;5.80;2.00;;;11.60;99.90;;;;;;5010881;28;20069;-73
2022/07/04 00:34:26;;;;;;;7.10;3.35;;;11.30;99.90;;;;;;5011683;28;20061;-73
2022/07/04 00:36:51;;;;;;;5.20;2.85;;;11.30;99.90;;;;;;5010010;28;20049;-72
2022/07/04 00:39:17;;;;;;;6.68;2.70;;;11.70;99.90;;;;;;5011722;28;20042;-73
2022/07/04 00:41:43;;;;;;;10.45;2.70;;;11.40;99.90;;;;;;5011503;28;20081;-72
2022/07/04 00:44:12;;;;;;;9.55;2.10;;;11.30;99.90;;;;;;5011589;28;20042;-73
2022/07/04 00:46:37;;;;;;;3.22;2.00;;;11.30;99.90;;;;;;5010366;28;20129;-73
2022/07/04 00:49:04;;;;;;;10.18;2.40;;;11.30;99.90;;;;;;5011531;28;20050;-73
2022/07/04 00:51:30;;;;;;;7.28;2.63;;;11.80;99.90;;;;;;5009855;28;20092;-73
2022/07/04 00:53:57;;;;;;;8.32;3.25;;;11.30;99.90;;;;;;5011591;28;20331;-72
2022/07/04 00:56:23;;;;;;;6.53;2.72;;;11.40;99.90;;;;;;5011538;28;20065;-73
2022/07/04 00:58:50;;;;;;;5.28;2.42;;;11.30;99.90;;;;;;5009933;28;20049;-72
2022/07/04 01:01:17;;;;;;;5.85;2.78;;;11.50;99.90;;;;;;5011784;28;20072;-72
2022/07/04 01:03:43;;;;;;;6.65;2.42;;;11.60;99.90;;;;;;5011652;28;20140;-73
2022/07/04 01:06:09;;;;;;;10.23;2.72;;;11.60;99.90;;;;;;5010862;28;20049;-72
2022/07/04 01:08:37;;;;;;;6.90;2.70;;;11.80;99.90;;;;;;5011441;28;20030;-72
2022/07/04 01:11:03;;;;;;;11.02;2.85;;;11.80;99.90;;;;;;5011100;28;20049;-73
2022/07/04 01:13:29;;;;;;;5.13;2.90;;;11.90;99.90;;;;;;5011533;28;20046;-73
2022/07/04 01:15:55;;;;;;;5.32;2.95;;;11.20;99.90;;;;;;5010829;28;20504;-72
2022/07/04 01:18:21;;;;;;;10.15;2.80;;;11.20;99.90;;;;;;5003728;28;20053;-73
2022/07/04 01:20:47;;;;;;;7.65;2.78;;;11.20;99.90;;;;;;5010714;28;20043;-73
2022/07/04 01:23:12;;;;;;;7.57;2.90;;;11.70;99.90;;;;;;5010627;28;20621;-72
2022/07/04 01:25:38;;;;;;;7.28;3.70;;;11.60;99.90;;;;;;5011424;28;20038;-72
2022/07/04 01:28:06;;;;;;;7.95;3.05;;;11.60;99.90;;;;;;5010496;28;20050;-73
2022/07/04 01:30:32;;;;;;;14.40;3.10;;;11.60;99.90;;;;;;5011249;28;20113;-73
2022/07/04 01:32:58;;;;;;;5.07;2.90;;;11.50;99.90;;;;;;5009501;28;20145;-72
2022/07/04 01:35:24;;;;;;;7.55;4.45;;;11.20;99.90;;;;;;5010732;28;20052;-72
2022/07/04 01:37:50;;;;;;;7.00;4.30;;;11.20;99.90;;;;;;5010532;28;20081;-72
2022/07/04 01:40:18;;;;;;;7.20;4.25;;;11.60;99.90;;;;;;5010620;28;20525;-72
2022/07/04 01:42:43;;;;;;;10.32;4.20;;;11.30;99.90;;;;;;5010831;28;20413;-72
2022/07/04 01:45:10;;;;;;;7.10;4.30;;;11.70;99.90;;;;;;5010616;28;20042;-72
2022/07/04 01:47:37;;;;;;;8.90;4.35;;;11.80;99.90;;;;;;5010486;28;20073;-72
2022/07/04 01:50:04;;;;;;;10.05;4.68;;;12.00;99.90;;;;;;5010794;28;20046;-72
2022/07/04 01:52:30;;;;;;;8.68;4.18;;;11.40;99.90;;;;;;5010495;28;20056;-72
2022/07/04 01:54:56;;;;;;;8.63;4.05;;;11.40;99.90;;;;;;5010560;28;20045;-72
2022/07/04 01:57:22;;;;;;;7.38;3.90;;;12.00;99.90;;;;;;5010466;28;20132;-72
2022/07/04 02:02:32;;;;;;;10.40;3.87;;;11.50;99.90;;;;;;5009388;28;20060;-73
2022/07/04 02:04:58;;;;;;;13.13;3.63;;;11.60;99.90;;;;;;5009895;28;20038;-72
2022/07/04 02:07:24;;;;;;;9.00;3.58;;;11.60;99.90;;;;;;5009407;28;20120;-72
2022/07/04 02:09:50;;;;;;;6.63;3.15;;;11.20;99.90;;;;;;5009803;28;20148;-72
2022/07/04 02:15:00;;;;;;;9.63;3.72;;;11.20;99.90;;;;;;4998067;28;20517;-71
2022/07/04 02:17:26;;;;;;;7.47;3.55;;;11.10;99.90;;;;;;4990194;28;20050;-71
2022/07/04 02:19:52;;;;;;;7.18;3.80;;;11.10;99.90;;;;;;4990645;28;20108;-71
2022/07/04 02:22:18;;;;;;;10.40;5.25;;;11.10;99.90;;;;;;4990387;28;20046;-72
2022/07/04 02:24:43;;;;;;;8.32;5.03;;;11.60;99.90;;;;;;4990138;28;20049;-72
2022/07/04 02:27:09;;;;;;;12.07;5.50;;;11.70;99.90;;;;;;4990213;28;20050;-72
2022/07/04 02:29:35;;;;;;;9.77;4.65;;;11.20;99.90;;;;;;4989847;28;20055;-72
2022/07/04 02:32:01;;;;;;;10.63;5.72;;;11.30;99.90;;;;;;4990807;28;20046;-72
2022/07/04 02:34:27;;;;;;;9.27;5.82;;;11.70;99.90;;;;;;4990268;28;20058;-72
2022/07/04 02:36:53;;;;;;;8.93;5.82;;;11.10;99.90;;;;;;4990280;28;20121;-71
2022/07/04 02:39:19;;;;;;;10.98;6.43;;;11.40;99.90;;;;;;4990507;28;20050;-71
2022/07/04 02:41:44;;;;;;;8.77;5.50;;;11.50;99.90;;;;;;4990614;28;20082;-72
2022/07/04 02:44:10;;;;;;;9.45;5.82;;;11.50;99.90;;;;;;4990618;28;20405;-72
2022/07/04 02:46:36;;;;;;;10.88;5.75;;;11.50;99.90;;;;;;4991199;28;20121;-72
2022/07/04 02:49:02;;;;;;;8.20;5.75;;;11.60;99.90;;;;;;4991141;28;20046;-72
2022/07/04 02:51:29;;;;;;;9.85;5.85;;;11.50;99.90;;;;;;4990289;28;20034;-72
2022/07/04 02:53:55;;;;;;;7.15;5.28;;;11.50;99.90;;;;;;4989869;28;20053;-72
2022/07/04 02:56:21;;;;;;;10.85;6.38;;;11.50;99.90;;;;;;4990590;28;20066;-72
2022/07/04 02:58:47;;;;;;;9.05;6.57;;;11.50;99.90;;;;;;4990144;28;20088;-72
2022/07/04 03:01:13;;;;;;;9.02;5.88;;;11.50;99.90;;;;;;4990204;28;20046;-72
2022/07/04 03:03:40;;;;;;;12.50;6.43;;;11.50;99.90;;;;;;4989882;28;20054;-72
2022/07/04 03:06:09;;;;;;;12.05;5.90;;;11.50;99.90;;;;;;4989834;28;20069;-72
2022/07/04 03:08:35;;;;;;;9.88;5.55;;;11.50;99.90;;;;;;4989612;28;20034;-72
2022/07/04 03:11:04;;;;;;;8.48;5.32;;;11.50;99.90;;;;;;4989396;28;20054;-72
2022/07/04 03:13:30;;;;;;;9.10;5.93;;;12.00;99.90;;;;;;4989930;28;20486;-72
2022/07/04 03:15:56;;;;;;;10.70;6.32;;;11.60;99.90;;;;;;4989154;28;20054;-71
2022/07/04 03:18:21;;;;;;;8.43;5.45;;;11.50;99.90;;;;;;4990121;28;20046;-71
2022/07/04 03:20:47;;;;;;;15.13;6.38;;;11.50;99.90;;;;;;4990046;28;20114;-72
2022/07/04 03:23:14;;;;;;;10.57;5.97;;;11.60;99.90;;;;;;4989729;28;20248;-72
2022/07/04 03:25:40;;;;;;;10.00;6.05;;;11.60;99.90;;;;;;4989869;28;20078;-72
2022/07/04 03:28:06;;;;;;;9.63;6.45;;;11.60;99.90;;;;;;4989963;28;20050;-72
2022/07/04 03:30:32;;;;;;;11.35;7.22;;;11.60;99.90;;;;;;4990424;28;20078;-72
2022/07/04 03:32:59;;;;;;;10.63;6.47;;;11.60;99.90;;;;;;4989676;28;20046;-70
2022/07/04 03:35:25;;;;;;;9.40;6.35;;;11.60;99.90;;;;;;4990102;28;20042;-72
2022/07/04 03:37:52;;;;;;;7.53;6.47;;;11.70;99.90;;;;;;4989760;28;20383;-72
2022/07/04 03:40:20;;;;;;;8.75;6.43;;;11.70;99.90;;;;;;4989335;28;20129;-71
2022/07/04 03:42:46;;;;;;;10.32;6.50;;;11.70;99.90;;;;;;4990229;28;20042;-71
2022/07/04 03:45:12;;;;;;;12.10;6.63;;;11.70;99.90;;;;;;4989897;28;20216;-72
2022/07/04 03:47:38;;;;;;;11.52;6.82;;;11.80;99.90;;;;;;4989487;28;20034;-72
2022/07/04 03:50:05;;;;;;;11.02;6.43;;;11.80;99.90;;;;;;4972424;28;20054;-71
2022/07/04 03:52:31;;;;;;;10.90;6.65;;;11.80;99.90;;;;;;4990332;28;20038;-72
2022/07/04 03:54:57;;;;;;;9.57;6.75;;;12.00;99.90;;;;;;4990286;28;20053;-73
2022/07/04 03:57:23;;;;;;;8.80;6.75;;;12.20;99.90;;;;;;4975583;28;21549;-71
2022/07/04 03:59:48;;;;;;;11.25;7.22;;;12.40;99.90;;;;;;4993208;28;20126;-72
2022/07/04 04:02:14;;;;;;;12.07;6.18;;;11.90;99.90;;;;;;4993195;28;20042;-73
2022/07/04 04:07:24;;;;;;;10.30;5.95;;;12.10;99.90;;;;;;4992714;28;20050;-72
2022/07/04 04:09:50;;;;;;;11.98;6.55;;;12.20;99.90;;;;;;4991813;28;20100;-71
2022/07/04 04:12:15;;;;;;;10.48;6.35;;;11.90;99.90;;;;;;4992495;28;20077;-72
2022/07/04 04:14:41;;;;;;;7.88;5.78;;;12.00;99.90;;;;;;4992894;28;20074;-73
2022/07/04 04:17:07;;;;;;;9.00;6.30;;;12.70;99.90;;;;;;4992333;28;20078;-72
2022/07/04 04:19:33;;;;;;;10.45;6.50;;;12.10;99.90;;;;;;4992753;28;20045;-72
2022/07/04 04:21:59;;;;;;;7.72;6.00;;;12.30;99.90;;;;;;4974995;28;20494;-72
2022/07/04 04:24:24;;;;;;;10.63;5.65;;;12.10;99.90;;;;;;4992943;28;20125;-72
2022/07/04 04:26:50;;;;;;;9.35;5.95;;;12.20;99.90;;;;;;4992671;28;20177;-72
2022/07/04 04:29:16;;;;;;;9.25;5.40;;;12.20;99.90;;;;;;4992695;28;20108;-72
2022/07/04 04:31:42;;;;;;;10.18;6.57;;;12.30;99.90;;;;;;4992638;28;20042;-73
2022/07/04 04:34:07;;;;;;;9.68;6.25;;;12.30;99.90;;;;;;4992037;28;20528;-72
2022/07/04 04:36:33;;;;;;;10.60;6.15;;;12.80;99.90;;;;;;4974555;28;20074;-72
2022/07/04 04:38:59;;;;;;;12.82;6.15;;;12.90;99.90;;;;;;4992210;28;20489;-72
2022/07/04 04:41:25;;;;;;;10.20;5.78;;;13.20;99.90;;;;;;4992277;28;20046;-72
2022/07/04 04:43:51;;;;;;;10.88;7.05;;;12.60;99.90;;;;;;4992102;28;20046;-72
2022/07/04 04:46:16;;;;;;;12.32;7.25;;;12.80;99.90;;;;;;4992490;28;20141;-73
2022/07/04 04:48:42;;;;;;;11.65;6.85;;;12.90;99.90;;;;;;4992177;28;20050;-73
2022/07/04 04:51:08;;;;;;;14.10;7.55;;;12.80;99.90;;;;;;4991666;28;20082;-72
2022/07/04 04:53:33;;;;;;;11.25;6.63;;;12.90;99.90;;;;;;4991900;28;20113;-72
2022/07/04 04:55:59;;;;;;;10.93;6.63;;;12.90;99.90;;;;;;4992036;28;20125;-72
2022/07/04 04:58:25;;;;;;;14.50;7.07;;;13.00;99.90;;;;;;4991603;28;20053;-73
2022/07/04 05:00:51;;;;;;;10.38;6.72;;;13.70;99.90;;;;;;4992129;28;20050;-73
2022/07/04 05:03:17;;;;;;;10.52;7.80;;;13.60;99.90;;;;;;4991546;28;20469;-73
2022/07/04 05:05:43;;;;;;;14.93;7.35;;;13.20;99.90;;;;;;4991691;28;20060;-73
2022/07/04 05:08:09;;;;;;;10.80;7.28;;;13.20;99.90;;;;;;4991340;28;20038;-72
2022/07/04 05:10:35;;;;;;;14.82;7.85;;;13.20;99.90;;;;;;4974342;28;20382;-73
2022/07/04 05:13:03;;;;;;;16.75;7.55;;;13.40;99.90;;;;;;4991874;28;20046;-73
2022/07/04 05:15:28;;;;;;;11.00;7.57;;;13.90;99.90;;;;;;5006738;28;20050;-73
2022/07/04 05:17:54;;;;;;;12.38;7.80;;;13.50;99.90;;;;;;5011182;28;20037;-73
2022/07/04 05:20:20;;;;;;;12.65;8.07;;;13.60;99.90;;;;;;5010831;28;20054;-73
2022/07/04 05:22:45;;;;;;;13.40;8.18;;;13.70;99.90;;;;;;5009578;28;20053;-73
2022/07/04 05:25:11;;;;;;;11.70;6.85;;;13.90;99.90;;;;;;5010600;28;20876;-72
2022/07/04 05:27:37;;;;;;;12.15;7.45;;;14.10;99.90;;;;;;5010972;28;20060;-72
2022/07/04 05:30:03;;;;;;;16.70;8.13;;;14.00;99.90;;;;;;5010864;28;20057;-73
2022/07/04 05:32:29;;;;;;;14.02;8.23;;;14.10;99.90;;;;;;5010755;28;20048;-73
2022/07/04 05:34:56;;;;;;;15.57;9.18;;;14.70;99.90;;;;;;5010785;28;20117;-73
2022/07/04 05:37:22;;;;;;;12.38;7.57;;;14.30;99.90;;;;;;5010485;28;20049;-73
2022/07/04 05:39:47;;;;;;;14.02;7.70;;;14.40;99.90;;;;;;5010138;28;20069;-73
2022/07/04 05:42:13;;;;;;;10.70;7.60;;;14.50;99.90;;;;;;5010932;28;20413;-72
2022/07/04 05:44:39;;;;;;;13.77;8.38;;;14.70;99.90;;;;;;5010164;28;20099;-73
2022/07/04 05:47:07;;;;;;;11.93;6.68;;;14.70;99.90;;;;;;5010517;28;20440;-73
2022/07/04 05:49:33;;;;;;;12.80;7.50;;;14.80;99.90;;;;;;5010557;28;20045;-74
2022/07/04 05:51:59;;;;;;;9.50;6.40;;;14.90;99.90;;;;;;5010629;28;20485;-73
2022/07/04 05:54:25;;;;;;;12.50;7.07;;;15.20;99.90;;;;;;5010596;28;20088;-74
2022/07/04 05:56:50;;;;;;;12.63;7.07;;;15.40;99.90;;;;;;5010833;28;20053;-73
2022/07/04 05:59:16;;;;;;;9.65;6.47;;;15.30;99.90;;;;;;5010629;28;20524;-72
2022/07/04 06:01:42;;;;;;;22.88;6.53;;;15.50;99.90;;;;;;5010122;28;20042;-74
2022/07/04 06:04:07;;;;;;;12.00;6.15;;;15.50;99.90;;;;;;5009969;28;20052;-74
2022/07/04 06:06:33;;;;;;;14.20;6.50;;;15.70;99.90;;;;;;5010078;28;20038;-72
2022/07/04 06:09:00;;;;;;;7.80;5.75;;;15.70;99.90;;;;;;5010114;28;20054;-73
2022/07/04 06:11:25;;;;;;;13.30;6.72;;;15.90;99.90;;;;;;5010190;28;20080;-73
2022/07/04 06:13:52;;;;;;;11.48;7.50;;;15.90;99.90;;;;;;5008407;28;20129;-74
2022/07/04 06:16:17;;;;;;;9.88;6.32;;;16.10;99.90;;;;;;5009707;28;20502;-75
2022/07/04 06:18:43;;;;;;;12.10;6.00;;;16.30;99.90;;;;;;5009779;28;20092;-74
2022/07/04 06:21:10;;;;;;;10.68;5.95;;;16.30;99.90;;;;;;5010114;28;20041;-73
2022/07/04 06:23:36;;;;;;;10.90;5.22;;;16.50;99.90;;;;;;5010425;28;20053;-74
2022/07/04 06:26:02;;;;;;;12.25;5.57;;;16.60;99.90;;;;;;5009827;28;20056;-75
2022/07/04 06:28:28;;;;;;;8.13;4.82;;;16.80;99.90;;;;;;5009846;28;20060;-75
2022/07/04 06:30:53;;;;;;;11.13;5.75;;;16.80;99.90;;;;;;5008624;28;20057;-74
2022/07/04 06:33:19;;;;;;;10.18;5.35;;;17.00;99.90;;;;;;5009779;28;20409;-73
2022/07/04 06:35:45;;;;;;;13.10;5.18;;;17.10;99.90;;;;;;5010010;28;20125;-74
2022/07/04 06:38:13;;;;;;;12.00;5.15;;;17.30;99.90;;;;;;5008240;28;20048;-74
2022/07/04 06:40:39;;;;;;;11.82;5.35;;;17.40;99.90;;;;;;5009641;28;20049;-74
2022/07/04 06:43:05;;;;;;;11.40;4.95;;;17.50;99.90;;;;;;5009548;28;20048;-75
2022/07/04 06:45:33;;;;;;;11.38;5.28;;;17.80;99.90;;;;;;5009743;28;20050;-74
2022/07/04 06:47:59;;;;;;;11.27;5.28;;;18.00;99.90;;;;;;5005231;28;20120;-74
2022/07/04 06:50:25;;;;;;;11.73;4.70;;;18.10;99.90;;;;;;5009630;28;20053;-76
2022/07/04 06:52:51;;;;;;;13.05;5.07;;;18.40;99.90;;;;;;5010446;28;20054;-74
2022/07/04 06:55:18;;;;;;;9.27;4.72;;;18.80;99.90;;;;;;5009741;28;20131;-75
2022/07/04 06:57:43;;;;;;;9.23;4.82;;;18.80;99.90;;;;;;5009960;28;20478;-74
2022/07/04 07:00:10;;;;;;;12.50;5.32;;;19.00;99.90;;;;;;5011263;28;20042;-74
2022/07/04 07:02:37;;;;;;;10.20;5.10;;;19.20;99.90;;;;;;5009896;28;20054;-75
2022/07/04 07:05:10;;;;;;;8.23;4.38;;;19.50;99.90;;;;;;5010037;28;20046;-73
2022/07/04 07:07:36;;;;;;;13.80;5.53;;;19.60;99.90;;;;;;5009958;28;20045;-75
2022/07/04 07:10:02;;;;;;;11.68;3.85;;;19.80;99.90;;;;;;5009751;28;20054;-76
2022/07/04 07:12:29;;;;;;;14.60;4.80;;;19.80;99.90;;;;;;5009595;28;20038;-75
2022/07/04 07:14:54;;;;;;;8.38;4.30;;;20.10;99.90;;;;;;5007748;28;20096;-74
2022/07/04 07:17:21;;;;;;;9.90;3.97;;;20.00;99.90;;;;;;5009614;28;20086;-75
2022/07/04 07:19:47;;;;;;;13.25;3.85;;;20.10;99.90;;;;;;5009771;28;20552;-75
2022/07/04 07:22:13;;;;;;;6.43;2.60;;;20.20;99.90;;;;;;5009546;28;20074;-75
2022/07/04 07:24:39;;;;;;;5.05;2.60;;;20.20;99.90;;;;;;5009993;28;20129;-75
2022/07/04 07:27:06;;;;;;;9.82;2.95;;;20.30;99.90;;;;;;5009948;28;20392;-74
2022/07/04 07:29:32;;;;;;;7.68;2.72;;;20.50;99.90;;;;;;5008398;28;20054;-74
2022/07/04 07:31:58;;;;;;;7.88;3.03;;;20.70;99.90;;;;;;5013572;28;20424;-76
2022/07/04 07:34:24;;;;;;;10.20;3.25;;;20.80;99.90;;;;;;5012251;28;20072;-76
2022/07/04 07:36:50;;;;;;;12.50;3.80;;;20.80;99.90;;;;;;5013305;28;20477;-74
2022/07/04 07:39:15;;;;;;;8.82;3.47;;;20.90;99.90;;;;;;5013455;28;20046;-75
2022/07/04 07:41:42;;;;;;;8.23;3.38;;;20.80;99.90;;;;;;5012320;28;20421;-78
2022/07/04 07:44:08;;;;;;;9.80;3.03;;;20.70;99.90;;;;;;5012026;28;20077;-76
2022/07/04 07:46:43;;;;;;;9.80;3.60;;;20.70;99.90;;;;;;5013096;28;20045;-78
2022/07/04 07:49:08;;;;;;;8.27;3.38;;;20.70;99.90;;;;;;5011208;28;20744;-76
2022/07/04 07:51:34;;;;;;;9.82;3.10;;;20.50;99.90;;;;;;5012926;28;20073;-75
2022/07/04 07:54:00;;;;;;;9.32;3.00;;;20.40;99.90;;;;;;5013176;28;20489;-77
2022/07/04 07:56:26;;;;;;;9.32;3.20;;;20.30;99.90;;;;;;5012945;28;20073;-76
2022/07/04 07:58:52;;;;;;;13.70;2.95;;;20.30;99.90;;;;;;5012979;28;20056;-76
2022/07/04 08:01:20;;;;;;;13.25;4.28;;;20.10;99.90;;;;;;5013104;28;20034;-77
2022/07/04 08:06:30;;;;;;;6.15;2.22;;;19.80;99.90;;;;;;5011551;28;20053;-75
2022/07/04 08:08:56;;;;;;;9.50;2.00;;;19.50;99.90;;;;;;5012701;28;20416;-76
2022/07/04 08:11:22;;;;;;;5.72;1.75;;;19.20;99.90;;;;;;5011675;28;20069;-76
2022/07/04 08:13:47;;;;;;;8.15;1.80;;;18.90;99.90;;;;;;5010797;28;20053;-76
2022/07/04 08:16:13;;;;;;;8.18;1.60;;;18.70;99.90;;;;;;4975481;28;20113;-76
2022/07/04 08:18:39;;;;;;;5.97;1.50;;;18.60;99.90;;;;;;4993214;28;20121;-74
2022/07/04 08:21:05;;;;;;;6.88;1.88;;;18.40;99.90;;;;;;4975360;28;20054;-76
2022/07/04 08:23:32;;;;;;;10.07;1.73;;;18.30;99.90;;;;;;4992902;28;20490;-74
2022/07/04 08:25:59;;;;;;;4.82;1.70;;;18.40;99.90;;;;;;4992915;28;20050;-75
2022/07/04 08:28:29;;;;;;;9.07;2.67;;;18.20;99.90;;;;;;4993089;28;20068;-77
2022/07/04 08:30:56;;;;;;;4.68;1.83;;;18.10;99.90;;;;;;4975570;28;20050;-76
2022/07/04 08:33:23;;;;;;;5.05;1.70;;;18.00;99.90;;;;;;4975153;28;20490;-74
2022/07/04 08:36:01;;;;;;;3.55;1.60;;;18.10;99.90;;;;;;4992353;28;20064;-76
2022/07/04 08:38:27;;;;;;;6.15;1.98;;;18.20;99.90;;;;;;4991539;28;20050;-76
2022/07/04 08:41:01;;;;;;;7.15;1.83;;;18.20;99.90;;;;;;4992696;28;20088;-76
2022/07/04 08:43:35;;;;;;;4.38;1.80;;;18.50;99.90;;;;;;4959091;28;20137;-75
2022/07/04 08:46:04;;;;;;;6.05;2.10;;;18.70;99.90;;;;;;4992624;28;20050;-76
2022/07/04 08:51:31;;;;;;;6.28;1.38;;;19.20;99.90;;;;;;4950993;29;20090;-76
2022/07/04 08:53:57;;;;;;;3.30;1.20;;;19.10;99.90;;;;;;4953906;28;20152;-76
2022/07/04 08:59:08;;;;;;;3.53;1.38;;;19.30;99.90;;;;;;4953849;29;20797;-78
2022/07/04 09:01:35;;;;;;;2.35;1.02;;;19.20;99.90;;;;;;4953704;29;20047;-77
2022/07/04 09:04:01;;;;;;;3.80;1.10;;;19.30;99.90;;;;;;4953514;29;20129;-75
2022/07/04 09:06:28;;;;;;;4.20;1.30;;;19.20;99.90;;;;;;4953476;29;20053;-76
2022/07/04 09:08:54;;;;;;;3.35;1.20;;;19.10;99.90;;;;;;4952398;29;20066;-75
2022/07/04 09:11:20;;;;;;;3.90;1.25;;;19.10;99.90;;;;;;4953428;29;20039;-76
2022/07/04 09:13:46;;;;;;;4.28;1.17;;;19.30;99.90;;;;;;4952410;29;20054;-77
2022/07/04 09:16:12;;;;;;;4.57;1.23;;;19.70;99.90;;;;;;4953209;28;20091;-76
2022/07/04 09:18:38;;;;;;;3.28;1.17;;;19.90;99.90;;;;;;4953299;29;20086;-76
2022/07/04 09:21:06;;;;;;;3.47;1.08;;;19.90;99.90;;;;;;4953142;29;20109;-78
2022/07/04 09:23:34;;;;;;;4.40;1.00;;;19.90;99.90;;;;;;4951619;29;20568;-77
2022/07/04 09:26:20;;;;;;;2.33;1.10;;;19.90;99.90;;;;;;4953248;29;20412;-77
2022/07/04 09:28:57;;;;;;;3.17;1.27;;;19.90;99.90;;;;;;4952927;28;20039;-77
2022/07/04 09:31:28;;;;;;;4.35;1.13;;;19.70;99.90;;;;;;4953065;28;20607;-77
2022/07/04 09:34:05;;;;;;;5.63;1.10;;;19.70;99.90;;;;;;4953242;29;20090;-77
2022/07/04 09:36:33;;;;;;;5.45;1.00;;;19.60;99.90;;;;;;4952782;28;20102;-76
2022/07/04 09:39:11;;;;;;;5.07;1.10;;;19.40;99.90;;;;;;4952863;29;20079;-75
2022/07/04 09:41:56;;;;;;;4.53;0.80;;;19.30;99.90;;;;;;4951279;29;20039;-77
2022/07/04 09:44:28;;;;;;;2.72;1.00;;;19.50;99.90;;;;;;4952676;29;20061;-77
2022/07/04 09:46:54;;;;;;;4.40;1.17;;;19.50;99.90;;;;;;4952902;29;20093;-75
2022/07/04 09:49:21;;;;;;;4.55;1.35;;;19.90;99.90;;;;;;4962655;28;20066;-76
2022/07/04 09:51:50;;;;;;;3.30;0.73;;;20.20;99.90;;;;;;4991081;28;20039;-77
2022/07/04 09:54:15;;;;;;;3.60;1.38;;;20.30;99.90;;;;;;4990915;28;20090;-77
2022/07/04 09:56:43;;;;;;;4.68;1.13;;;20.30;99.90;;;;;;4991325;28;20702;-76
2022/07/04 09:59:08;;;;;;;4.32;1.13;;;20.30;99.90;;;;;;4991295;28;20449;-77
2022/07/04 10:01:50;;;;;;;3.60;0.80;;;20.70;99.90;;;;;;4973732;28;20038;-77
2022/07/04 10:04:17;;;;;;;3.55;0.75;;;20.70;99.90;;;;;;4990984;28;20444;-78
2022/07/04 10:06:44;;;;;;;5.47;1.35;;;20.80;99.90;;;;;;4991178;28;20043;-76
2022/07/04 10:09:11;;;;;;;6.78;0.82;;;21.10;99.90;;;;;;4991210;28;20058;-75
2022/07/04 10:11:38;;;;;;;2.25;0.90;;;21.40;99.90;;;;;;4973935;28;20073;-77
2022/07/04 10:14:08;;;;;;;6.03;0.95;;;21.40;99.90;;;;;;4990881;28;20050;-75
2022/07/04 10:16:35;;;;;;;5.85;0.95;;;21.40;99.90;;;;;;4991153;28;20078;-76
2022/07/04 10:19:02;;;;;;;3.90;0.93;;;21.40;99.90;;;;;;4990989;28;20615;-75
2022/07/04 10:21:29;;;;;;;4.35;0.85;;;21.10;99.90;;;;;;4991114;28;20596;-79
2022/07/04 10:23:54;;;;;;;2.80;0.82;;;21.00;99.90;;;;;;4990660;28;20100;-76
2022/07/04 10:26:22;;;;;;;5.53;1.10;;;21.00;99.90;;;;;;4973148;28;20046;-74
2022/07/04 10:28:51;;;;;;;2.45;0.80;;;20.90;99.90;;;;;;4973478;28;20437;-75
2022/07/04 10:31:17;;;;;;;4.90;1.17;;;21.00;99.90;;;;;;4990777;28;20062;-78
2022/07/04 10:33:43;;;;;;;7.40;1.75;;;21.10;99.90;;;;;;4972706;28;20100;-75
2022/07/04 10:36:23;;;;;;;3.08;0.90;;;21.00;99.90;;;;;;4972552;28;20128;-75
2022/07/04 10:38:55;;;;;;;3.78;0.82;;;20.90;99.90;;;;;;4989392;28;20572;-75
2022/07/04 10:41:23;;;;;;;3.25;0.80;;;21.40;99.90;;;;;;4994115;28;20087;-73
2022/07/04 10:44:04;;;;;;;3.97;1.10;;;21.40;99.90;;;;;;4990472;28;20375;-76
2022/07/04 10:46:35;;;;;;;3.15;0.82;;;21.60;99.90;;;;;;4990361;28;20080;-77
2022/07/04 10:49:18;;;;;;;3.30;1.05;;;21.80;99.90;;;;;;4973003;28;20149;-76
2022/07/04 10:51:48;;;;;;;8.70;1.27;;;22.10;99.90;;;;;;4990426;28;20046;-77
2022/07/04 10:54:20;;;;;;;10.05;0.90;;;21.90;99.90;;;;;;4990149;28;20073;-77
2022/07/04 10:57:09;;;;;;;3.00;0.85;;;21.50;99.90;;;;;;4990527;28;20129;-80
2022/07/04 10:59:35;;;;;;;3.63;0.80;;;21.50;99.90;;;;;;4990834;28;20042;-75
2022/07/04 11:02:06;;;;;;;3.20;0.80;;;21.70;99.90;;;;;;4990649;28;20126;-85
2022/07/04 11:04:50;;;;;;;4.65;0.85;;;21.80;99.90;;;;;;4974702;28;20089;-74
2022/07/04 11:07:21;;;;;;;4.32;1.38;;;21.90;99.90;;;;;;4994014;28;20069;-75
2022/07/04 11:10:10;;;;;;;3.97;0.82;;;21.80;99.90;;;;;;4976385;28;20046;-77
2022/07/04 11:12:56;;;;;;;4.45;0.85;;;22.10;99.90;;;;;;4994379;28;20064;-78
2022/07/04 11:15:28;;;;;;;2.33;0.50;;;22.20;99.90;;;;;;4992931;28;20050;-75
2022/07/04 11:18:08;;;;;;;2.15;0.75;;;22.10;99.90;;;;;;4993936;28;20058;-80
2022/07/04 11:20:36;;;;;;;5.72;0.70;;;22.20;99.90;;;;;;4994884;28;20509;-79
2022/07/04 11:23:10;;;;;;;1.45;0.50;;;22.30;99.90;;;;;;4994170;28;20042;-81
2022/07/04 11:25:36;;;;;;;7.97;0.50;;;22.40;99.90;;;;;;4993901;28;20537;-78
2022/07/04 11:28:19;;;;;;;10.18;1.25;;;22.40;99.90;;;;;;4994312;28;20542;-78
2022/07/04 11:30:55;;;;;;;4.07;0.60;;;22.30;99.90;;;;;;4976417;28;20058;-75
2022/07/04 11:33:26;;;;;;;5.20;1.00;;;22.30;99.90;;;;;;4993717;28;20035;-76
2022/07/04 11:36:17;;;;;;;2.00;0.55;;;22.60;99.90;;;;;;4993594;28;20050;-75
2022/07/04 11:39:00;;;;;;;2.10;0.50;;;22.60;99.90;;;;;;4982103;28;20100;-75
2022/07/04 11:47:37;;;;;;;3.03;0.70;;;22.60;99.90;;;;;;4993093;28;20050;-77
2022/07/04 11:50:09;;;;;;;3.90;0.70;;;22.70;99.90;;;;;;4993714;28;20599;-79
2022/07/04 11:52:43;;;;;;;1.95;0.60;;;22.80;99.90;;;;;;4976088;28;20053;-76
2022/07/04 11:55:11;;;;;;;6.82;0.80;;;22.70;99.90;;;;;;4977349;28;20401;-75
2022/07/04 11:57:40;;;;;;;2.95;0.73;;;22.60;99.90;;;;;;4992846;28;20106;-76
2022/07/04 12:00:13;;;;;;;6.30;0.80;;;22.30;99.90;;;;;;4993364;28;20526;-78
2022/07/04 12:02:40;;;;;;;5.05;0.80;;;22.10;99.90;;;;;;4993703;28;20529;-74
2022/07/04 12:05:11;;;;;;;2.13;0.70;;;22.10;99.90;;;;;;4992466;28;20050;-75
2022/07/04 12:07:38;;;;;;;4.97;0.70;;;22.20;99.90;;;;;;4992607;28;20042;-74
2022/07/04 12:10:08;;;;;;;5.50;0.73;;;22.30;99.90;;;;;;4993327;28;20115;-75
2022/07/04 12:12:34;;;;;;;3.33;1.02;;;22.00;99.90;;;;;;4974452;28;20050;-78
2022/07/04 12:15:00;;;;;;;3.20;0.85;;;22.10;99.90;;;;;;4992819;28;20425;-75
2022/07/04 12:17:39;;;;;;;2.90;0.80;;;22.10;99.90;;;;;;4989577;28;20054;-79
2022/07/04 12:20:17;;;;;;;4.35;0.77;;;22.20;99.90;;;;;;4992426;28;20050;-77
2022/07/04 12:22:52;;;;;;;5.07;0.80;;;22.10;99.90;;;;;;4971824;28;20042;-74
2022/07/04 12:25:32;;;;;;;4.28;0.85;;;22.20;99.90;;;;;;4985609;28;20509;-75
2022/07/04 12:28:01;;;;;;;13.95;2.35;;;22.20;99.90;;;;;;4973297;28;20494;-77
2022/07/04 12:30:29;;;;;;;7.10;0.82;;;22.20;99.90;;;;;;4992500;28;20141;-76
2022/07/04 12:33:00;;;;;;;2.05;0.60;;;22.30;99.90;;;;;;4992477;28;20035;-78
2022/07/04 12:35:39;;;;;;;5.43;0.77;;;22.40;99.90;;;;;;4993395;28;20133;-75
2022/07/04 12:38:12;;;;;;;4.00;0.70;;;22.60;99.90;;;;;;4999176;28;20069;-77
2022/07/04 12:40:50;;;;;;;3.22;0.80;;;22.00;99.90;;;;;;4992013;28;20051;-74
2022/07/04 12:43:17;;;;;;;2.53;0.73;;;22.10;99.90;;;;;;4980971;28;20062;-77
2022/07/04 12:45:50;;;;;;;4.18;0.90;;;22.20;99.90;;;;;;4992115;28;20042;-73
2022/07/04 12:48:29;;;;;;;1.70;0.70;;;22.40;99.90;;;;;;4981532;28;20500;-79
2022/07/04 12:51:15;;;;;;;10.07;1.58;;;22.40;99.90;;;;;;5009713;28;20081;-74
2022/07/04 12:53:43;;;;;;;3.28;0.60;;;22.40;99.90;;;;;;5010072;28;20056;-76
2022/07/04 12:56:09;;;;;;;3.17;0.88;;;22.50;99.90;;;;;;5009957;28;20053;-74
2022/07/04 12:58:35;;;;;;;4.32;1.08;;;22.30;99.90;;;;;;5005072;28;20050;-79
2022/07/04 13:01:02;;;;;;;7.38;0.52;;;22.10;99.60;;;;;;4973698;28;20049;-76
2022/07/04 13:03:28;;;;;;;2.40;0.65;;;22.20;99.90;;;;;;4991658;28;20060;-76
2022/07/04 13:05:56;;;;;;;4.43;0.60;;;22.50;99.90;;;;;;4992602;28;20081;-78
2022/07/04 13:08:22;;;;;;;4.57;0.73;;;22.30;99.80;;;;;;4992270;28;20080;-76